createdAt,value
2022-10-26T00:00:33.909Z,15.80
2022-10-26T00:03:00.666Z,15.70
2022-10-26T00:05:27.439Z,15.70
2022-10-26T00:07:54.318Z,15.70
2022-10-26T00:10:21.891Z,15.70
2022-10-26T00:12:51.205Z,15.70
2022-10-26T00:15:19.895Z,15.70
2022-10-26T00:17:48.247Z,15.70
2022-10-26T00:20:15.490Z,15.80
2022-10-26T00:22:42.381Z,15.80
2022-10-26T00:25:09.433Z,15.80
2022-10-26T00:27:36.305Z,15.90
2022-10-26T00:30:04.939Z,15.90
2022-10-26T00:32:32.266Z,16.00
2022-10-26T00:35:07.102Z,16.00
2022-10-26T00:37:43.963Z,16.00
2022-10-26T00:40:11.227Z,15.90
2022-10-26T00:42:38.043Z,15.90
2022-10-26T00:45:15.670Z,15.90
2022-10-26T00:47:50.490Z,15.90
2022-10-26T00:50:33.253Z,16.00
2022-10-26T00:53:03.362Z,16.10
2022-10-26T00:55:34.015Z,16.10
2022-10-26T00:58:04.319Z,16.10
2022-10-26T01:00:31.218Z,16.10
2022-10-26T01:03:01.155Z,16.00
2022-10-26T01:05:28.333Z,16.00
2022-10-26T01:07:55.552Z,16.00
2022-10-26T01:10:23.001Z,16.00
2022-10-26T01:12:50.010Z,16.00
2022-10-26T01:15:16.920Z,16.00
2022-10-26T01:17:54.292Z,16.00
2022-10-26T01:20:42.312Z,16.00
2022-10-26T01:26:42.553Z,16.00
2022-10-26T01:29:15.225Z,16.00
2022-10-26T01:32:04.733Z,16.10
2022-10-26T01:34:43.256Z,16.00
2022-10-26T01:37:15.086Z,16.00
2022-10-26T01:39:58.447Z,16.10
2022-10-26T01:42:28.396Z,16.20
2022-10-26T01:45:05.892Z,16.20
2022-10-26T01:47:36.587Z,16.20
2022-10-26T01:50:05.575Z,16.20
2022-10-26T01:52:32.437Z,16.30
2022-10-26T01:55:03.856Z,16.20
2022-10-26T01:57:35.566Z,16.20
2022-10-26T02:00:07.433Z,16.20
2022-10-26T02:02:51.489Z,16.20
2022-10-26T02:05:23.767Z,16.20
2022-10-26T02:08:12.263Z,16.20
2022-10-26T02:10:47.932Z,16.20
2022-10-26T02:13:39.754Z,16.20
2022-10-26T02:16:26.444Z,16.20
2022-10-26T02:18:59.237Z,16.10
2022-10-26T02:21:34.782Z,16.10
2022-10-26T02:24:02.635Z,16.10
2022-10-26T02:26:32.218Z,16.10
2022-10-26T02:29:04.141Z,16.10
2022-10-26T02:31:32.246Z,16.10
2022-10-26T02:34:02.149Z,16.20
2022-10-26T02:36:32.579Z,16.20
2022-10-26T02:39:00.649Z,16.20
2022-10-26T02:41:29.453Z,16.10
2022-10-26T02:44:04.364Z,16.10
2022-10-26T02:46:31.531Z,16.10
2022-10-26T02:48:58.759Z,16.20
2022-10-26T02:51:45.057Z,16.20
2022-10-26T02:54:26.790Z,16.20
2022-10-26T02:57:01.464Z,16.10
2022-10-26T02:59:34.309Z,16.20
2022-10-26T03:02:01.690Z,16.20
2022-10-26T03:04:30.614Z,16.20
2022-10-26T03:06:57.469Z,16.20
2022-10-26T03:09:25.726Z,16.20
2022-10-26T03:11:53.013Z,16.20
2022-10-26T03:14:19.920Z,16.20
2022-10-26T03:16:46.878Z,16.20
2022-10-26T03:19:13.640Z,16.40
2022-10-26T03:21:42.234Z,16.30
2022-10-26T03:24:09.548Z,16.20
2022-10-26T03:26:36.321Z,16.30
2022-10-26T03:29:03.520Z,16.30
2022-10-26T03:31:30.265Z,16.30
2022-10-26T03:33:57.020Z,16.30
2022-10-26T03:36:23.749Z,16.30
2022-10-26T03:38:50.459Z,16.30
2022-10-26T03:41:17.254Z,16.30
2022-10-26T03:43:44.083Z,16.20
2022-10-26T03:46:10.822Z,16.20
2022-10-26T03:48:37.669Z,16.30
2022-10-26T03:51:04.453Z,16.20
2022-10-26T03:53:31.195Z,16.30
2022-10-26T03:55:58.153Z,16.30
2022-10-26T04:00:52.874Z,16.30
2022-10-26T04:03:19.636Z,16.30
2022-10-26T04:05:46.374Z,16.30
2022-10-26T04:08:13.171Z,16.30
2022-10-26T04:10:40.451Z,16.30
2022-10-26T04:13:07.292Z,16.20
2022-10-26T04:15:35.255Z,16.40
2022-10-26T04:18:03.394Z,16.30
2022-10-26T04:20:32.808Z,16.30
2022-10-26T04:23:04.771Z,16.40
2022-10-26T04:25:33.633Z,16.40
2022-10-26T04:28:02.756Z,16.30
2022-10-26T04:30:29.501Z,16.40
2022-10-26T04:32:56.602Z,16.30
2022-10-26T04:35:23.657Z,16.40
2022-10-26T04:37:50.421Z,16.40
2022-10-26T04:40:17.174Z,16.40
2022-10-26T04:42:47.994Z,16.50
2022-10-26T04:45:16.246Z,16.40
2022-10-26T04:47:43.800Z,16.40
2022-10-26T04:50:12.259Z,16.40
2022-10-26T04:52:39.468Z,16.50
2022-10-26T04:55:07.660Z,16.40
2022-10-26T04:57:35.052Z,16.30
2022-10-26T05:00:03.685Z,16.30
2022-10-26T05:02:30.500Z,16.30
2022-10-26T05:04:57.357Z,16.40
2022-10-26T05:07:24.211Z,16.40
2022-10-26T05:09:50.885Z,16.40
2022-10-26T05:12:17.656Z,16.40
2022-10-26T05:14:44.392Z,16.40
2022-10-26T05:17:11.396Z,16.40
2022-10-26T05:19:38.317Z,16.40
2022-10-26T05:22:05.181Z,16.30
2022-10-26T05:24:31.849Z,16.30
2022-10-26T05:26:58.571Z,16.30
2022-10-26T05:29:25.243Z,16.30
2022-10-26T05:31:52.036Z,16.30
2022-10-26T05:34:18.807Z,16.40
2022-10-26T05:36:45.644Z,16.40
2022-10-26T05:39:12.345Z,16.40
2022-10-26T05:41:39.113Z,16.30
2022-10-26T05:44:05.945Z,16.30
2022-10-26T05:46:32.747Z,16.40
2022-10-26T05:48:59.503Z,16.30
2022-10-26T05:51:26.258Z,16.40
2022-10-26T05:53:55.678Z,16.40
2022-10-26T05:56:41.782Z,16.40
2022-10-26T05:59:14.545Z,16.40
2022-10-26T06:01:52.467Z,16.40
2022-10-26T06:04:30.751Z,16.50
2022-10-26T06:06:58.965Z,16.50
2022-10-26T06:09:26.093Z,16.40
2022-10-26T06:11:53.191Z,14.30
2022-10-26T06:14:20.918Z,16.30
2022-10-26T06:17:18.950Z,16.40
2022-10-26T06:20:18.937Z,16.40
2022-10-26T06:22:55.067Z,16.40
2022-10-26T06:25:47.114Z,16.50
2022-10-26T06:28:16.797Z,16.40
2022-10-26T06:30:43.859Z,16.40
2022-10-26T06:33:24.693Z,16.40
2022-10-26T06:36:21.011Z,16.40
2022-10-26T06:38:50.489Z,16.50
2022-10-26T06:41:22.215Z,16.60
2022-10-26T06:43:49.383Z,16.50
2022-10-26T06:46:41.889Z,16.50
2022-10-26T06:49:14.968Z,16.60
2022-10-26T06:52:07.147Z,16.60
2022-10-26T06:54:54.567Z,16.60
2022-10-26T06:57:28.348Z,16.60
2022-10-26T07:00:01.408Z,16.60
2022-10-26T07:02:29.090Z,16.60
2022-10-26T07:04:56.065Z,16.70
2022-10-26T07:07:27.851Z,16.70
2022-10-26T07:09:54.853Z,16.80
2022-10-26T07:12:21.881Z,16.80
2022-10-26T07:14:48.882Z,16.80
2022-10-26T07:17:17.056Z,16.80
2022-10-26T07:19:45.041Z,16.70
2022-10-26T07:22:12.205Z,16.60
2022-10-26T07:24:40.863Z,16.70
2022-10-26T07:27:07.704Z,16.70
2022-10-26T07:29:35.392Z,16.60
2022-10-26T07:32:02.449Z,16.50
2022-10-26T07:34:29.240Z,16.50
2022-10-26T07:36:56.055Z,16.60
2022-10-26T07:39:22.826Z,16.60
2022-10-26T07:41:49.616Z,16.60
2022-10-26T07:44:16.417Z,16.70
2022-10-26T07:46:43.355Z,16.70
2022-10-26T07:49:10.125Z,16.70
2022-10-26T07:51:37.050Z,16.80
2022-10-26T07:54:03.950Z,16.90
2022-10-26T07:56:30.822Z,16.80
2022-10-26T07:58:58.272Z,16.90
2022-10-26T08:01:25.471Z,16.90
2022-10-26T08:03:53.643Z,16.90
2022-10-26T08:06:21.903Z,16.90
2022-10-26T08:08:49.135Z,16.90
2022-10-26T08:11:17.007Z,17.00
2022-10-26T08:13:43.909Z,16.90
2022-10-26T08:16:10.943Z,16.90
2022-10-26T08:18:37.774Z,17.00
2022-10-26T08:21:11.299Z,17.00
2022-10-26T08:23:38.612Z,17.00
2022-10-26T08:26:05.995Z,17.00
2022-10-26T08:28:33.325Z,17.00
2022-10-26T08:31:00.122Z,17.00
2022-10-26T08:33:26.893Z,17.00
2022-10-26T08:35:59.460Z,17.00
2022-10-26T08:38:27.113Z,17.10
2022-10-26T08:40:56.286Z,17.10
2022-10-26T08:43:29.485Z,17.20
2022-10-26T08:46:16.156Z,17.10
2022-10-26T08:48:48.148Z,17.20
2022-10-26T08:51:19.545Z,17.20
2022-10-26T08:53:51.740Z,17.30
2022-10-26T08:56:28.909Z,17.30
2022-10-26T08:59:04.447Z,17.40
2022-10-26T09:01:32.216Z,17.40
2022-10-26T09:07:18.138Z,17.50
2022-10-26T09:10:30.001Z,17.50
2022-10-26T09:13:10.092Z,17.50
2022-10-26T09:15:42.480Z,17.60
2022-10-26T09:18:27.749Z,17.60
2022-10-26T09:21:36.903Z,17.60
2022-10-26T09:24:06.393Z,17.60
2022-10-26T09:26:39.570Z,17.60
2022-10-26T09:29:12.778Z,17.50
2022-10-26T09:31:43.503Z,17.70
2022-10-26T09:34:23.435Z,17.70
2022-10-26T09:36:55.398Z,17.70
2022-10-26T09:39:28.568Z,17.70
2022-10-26T09:42:06.699Z,17.70
2022-10-26T09:44:58.082Z,17.70
2022-10-26T09:47:42.483Z,17.70
2022-10-26T09:50:37.127Z,17.80
2022-10-26T09:53:04.454Z,17.90
2022-10-26T09:55:40.701Z,17.90
2022-10-26T09:58:16.202Z,18.00
2022-10-26T10:00:46.439Z,18.10
2022-10-26T10:03:26.810Z,18.10
2022-10-26T10:05:54.020Z,18.20
2022-10-26T10:08:27.487Z,18.20
2022-10-26T10:10:59.552Z,18.20
2022-10-26T10:13:38.393Z,18.30
2022-10-26T10:16:22.895Z,18.40
2022-10-26T10:18:59.038Z,18.40
2022-10-26T10:21:40.823Z,18.50
2022-10-26T10:24:24.897Z,18.60
2022-10-26T10:27:02.662Z,18.60
2022-10-26T10:29:32.454Z,18.60
2022-10-26T10:32:02.585Z,18.70
2022-10-26T10:34:33.423Z,18.70
2022-10-26T10:37:01.577Z,18.80
2022-10-26T10:39:40.801Z,18.80
2022-10-26T10:42:23.646Z,18.90
2022-10-26T10:44:54.139Z,18.90
2022-10-26T10:47:37.934Z,18.90
2022-10-26T10:50:15.697Z,19.00
2022-10-26T10:52:43.478Z,19.10
2022-10-26T10:55:21.382Z,19.10
2022-10-26T10:57:51.417Z,19.20
2022-10-26T11:00:20.226Z,19.30
2022-10-26T11:03:08.704Z,19.30
2022-10-26T11:05:56.377Z,19.40
2022-10-26T11:08:37.612Z,19.50
2022-10-26T11:11:16.906Z,19.50
2022-10-26T11:13:55.442Z,19.50
2022-10-26T11:16:35.078Z,19.60
2022-10-26T11:19:17.050Z,19.70
2022-10-26T11:21:48.776Z,19.70
2022-10-26T11:24:24.328Z,19.80
2022-10-26T11:27:14.345Z,19.70
2022-10-26T11:29:54.264Z,19.80
2022-10-26T11:32:32.712Z,19.80
2022-10-26T11:35:28.718Z,19.90
2022-10-26T11:38:27.911Z,19.90
2022-10-26T11:41:43.320Z,19.90
2022-10-26T11:44:22.464Z,20.00
2022-10-26T11:47:17.606Z,20.00
2022-10-26T11:49:47.064Z,20.00
2022-10-26T11:52:24.440Z,19.90
2022-10-26T11:54:55.842Z,19.90
2022-10-26T11:57:25.767Z,20.00
2022-10-26T12:00:13.126Z,20.00
2022-10-26T12:05:15.703Z,20.20
2022-10-26T12:07:54.904Z,20.20
2022-10-26T12:10:36.097Z,20.20
2022-10-26T12:13:12.310Z,20.20
2022-10-26T12:16:03.379Z,20.20
2022-10-26T12:18:54.891Z,20.20
2022-10-26T12:21:28.786Z,20.20
2022-10-26T12:24:02.974Z,20.30
2022-10-26T12:26:29.868Z,20.30
2022-10-26T12:29:02.705Z,20.20
2022-10-26T12:31:33.021Z,20.30
2022-10-26T12:34:00.681Z,20.30
2022-10-26T12:36:55.507Z,20.30
2022-10-26T12:39:29.687Z,20.40
2022-10-26T12:41:58.169Z,20.30
2022-10-26T12:44:40.455Z,20.30
2022-10-26T12:47:08.938Z,20.30
2022-10-26T12:50:07.163Z,20.30
2022-10-26T12:52:56.573Z,20.30
2022-10-26T12:55:47.944Z,20.20
2022-10-26T12:58:39.670Z,20.20
2022-10-26T13:01:06.923Z,20.20
2022-10-26T13:04:12.330Z,20.30
2022-10-26T13:07:17.803Z,20.40
2022-10-26T13:10:09.063Z,20.40
2022-10-26T13:12:59.770Z,20.40
2022-10-26T13:15:28.431Z,20.30
2022-10-26T13:17:57.068Z,20.30
2022-10-26T13:20:24.008Z,20.30
2022-10-26T13:22:51.715Z,20.30
2022-10-26T13:25:31.865Z,20.30
2022-10-26T13:28:03.690Z,20.30
2022-10-26T13:30:33.311Z,20.40
2022-10-26T13:33:01.647Z,20.40
2022-10-26T13:35:29.076Z,20.50
2022-10-26T13:37:57.157Z,20.50
2022-10-26T13:40:26.312Z,20.50
2022-10-26T13:42:59.104Z,20.50
2022-10-26T13:45:29.739Z,20.60
2022-10-26T13:47:56.733Z,20.60
2022-10-26T13:50:32.480Z,20.60
2022-10-26T13:53:05.407Z,20.50
2022-10-26T13:55:52.899Z,20.50
2022-10-26T13:58:33.612Z,20.50
2022-10-26T14:01:10.060Z,20.50
2022-10-26T14:03:37.618Z,20.50
2022-10-26T14:06:30.675Z,20.40
2022-10-26T14:09:04.989Z,20.40
2022-10-26T14:11:36.140Z,20.30
2022-10-26T14:14:04.521Z,20.30
2022-10-26T14:16:33.539Z,20.30
2022-10-26T14:19:00.947Z,20.40
2022-10-26T14:21:27.845Z,20.40
2022-10-26T14:23:58.896Z,20.40
2022-10-26T14:26:40.453Z,20.30
2022-10-26T14:29:18.637Z,20.30
2022-10-26T14:31:45.403Z,20.30
2022-10-26T14:34:12.846Z,20.20
2022-10-26T14:37:01.208Z,20.20
2022-10-26T14:39:40.996Z,20.20
2022-10-26T14:42:31.178Z,20.20
2022-10-26T14:44:59.219Z,20.20
2022-10-26T14:47:31.854Z,20.10
2022-10-26T14:52:36.596Z,20.10
2022-10-26T14:55:11.402Z,20.10
2022-10-26T14:57:40.195Z,20.10
2022-10-26T15:00:22.268Z,20.10
2022-10-26T15:05:35.655Z,20.10
2022-10-26T15:08:03.325Z,20.10
2022-10-26T15:10:36.499Z,20.00
2022-10-26T15:13:25.009Z,20.00
2022-10-26T15:15:56.056Z,20.00
2022-10-26T15:18:33.147Z,20.00
2022-10-26T15:21:00.138Z,19.90
2022-10-26T15:23:28.770Z,19.90
2022-10-26T15:25:58.322Z,19.90
2022-10-26T15:28:43.392Z,19.90
2022-10-26T15:31:14.585Z,19.90
2022-10-26T15:33:43.888Z,19.80
2022-10-26T15:36:14.475Z,19.80
2022-10-26T15:38:41.909Z,19.80
2022-10-26T15:41:29.022Z,19.80
2022-10-26T15:44:02.695Z,19.70
2022-10-26T15:46:31.011Z,19.70
2022-10-26T15:49:00.418Z,19.70
2022-10-26T15:51:28.722Z,19.70
2022-10-26T15:53:57.050Z,19.70
2022-10-26T15:56:25.807Z,19.70
2022-10-26T15:58:54.216Z,19.60
2022-10-26T16:01:24.150Z,19.60
2022-10-26T16:03:52.007Z,19.60
2022-10-26T16:06:31.875Z,19.60
2022-10-26T16:09:01.659Z,19.60
2022-10-26T16:11:29.120Z,19.60
2022-10-26T16:13:58.289Z,19.50
2022-10-26T16:16:28.114Z,19.50
2022-10-26T16:19:11.754Z,19.50
2022-10-26T16:21:39.298Z,19.50
2022-10-26T16:24:06.272Z,19.50
2022-10-26T16:26:33.118Z,19.50
2022-10-26T16:29:00.018Z,19.50
2022-10-26T16:31:27.146Z,19.50
2022-10-26T16:33:54.734Z,19.50
2022-10-26T16:36:21.648Z,19.50
2022-10-26T16:38:48.480Z,19.40
2022-10-26T16:41:17.141Z,19.40
2022-10-26T16:43:46.929Z,19.40
2022-10-26T16:46:18.672Z,19.30
2022-10-26T16:48:47.089Z,19.30
2022-10-26T16:51:15.764Z,19.30
2022-10-26T16:53:43.251Z,19.30
2022-10-26T16:56:16.434Z,19.20
2022-10-26T16:58:43.620Z,19.20
2022-10-26T17:01:13.025Z,19.20
2022-10-26T17:03:40.313Z,19.20
2022-10-26T17:06:08.868Z,19.20
2022-10-26T17:08:37.062Z,19.10
2022-10-26T17:11:16.246Z,19.10
2022-10-26T17:13:43.774Z,19.10
2022-10-26T17:16:12.030Z,19.00
2022-10-26T17:18:42.866Z,19.00
2022-10-26T17:21:11.394Z,19.00
2022-10-26T17:23:38.429Z,18.90
2022-10-26T17:26:07.338Z,18.90
2022-10-26T17:28:34.752Z,18.90
2022-10-26T17:31:13.423Z,18.80
2022-10-26T17:33:42.789Z,18.80
2022-10-26T17:36:11.364Z,18.80
2022-10-26T17:38:40.783Z,18.70
2022-10-26T17:41:09.761Z,18.70
2022-10-26T17:43:38.801Z,18.70
2022-10-26T17:46:07.967Z,18.60
2022-10-26T17:48:34.695Z,18.60
2022-10-26T17:51:03.265Z,18.60
2022-10-26T17:53:29.949Z,18.60
2022-10-26T17:56:05.129Z,18.60
2022-10-26T17:58:33.689Z,18.60
2022-10-26T18:01:05.717Z,18.50
2022-10-26T18:03:32.843Z,18.40
2022-10-26T18:05:59.940Z,18.40
2022-10-26T18:08:30.031Z,18.40
2022-10-26T18:10:56.844Z,18.40
2022-10-26T18:13:23.675Z,18.40
2022-10-26T18:15:50.377Z,18.30
2022-10-26T18:18:17.075Z,18.30
2022-10-26T18:20:43.809Z,18.30
2022-10-26T18:23:10.626Z,18.20
2022-10-26T18:25:37.658Z,18.20
2022-10-26T18:28:04.543Z,18.20
2022-10-26T18:30:31.300Z,18.20
2022-10-26T18:32:57.989Z,18.20
2022-10-26T18:35:24.721Z,18.20
2022-10-26T18:37:51.753Z,18.10
2022-10-26T18:40:18.828Z,18.00
2022-10-26T18:42:45.779Z,18.00
2022-10-26T18:45:12.600Z,18.00
2022-10-26T18:47:39.331Z,17.90
2022-10-26T18:50:06.456Z,17.90
2022-10-26T18:52:33.143Z,17.80
2022-10-26T18:54:59.832Z,17.50
2022-10-26T18:57:28.862Z,17.80
2022-10-26T18:59:55.749Z,17.80
2022-10-26T19:02:22.973Z,17.80
2022-10-26T19:04:53.021Z,17.80
2022-10-26T19:07:20.234Z,17.80
2022-10-26T19:09:46.929Z,17.80
2022-10-26T19:12:13.738Z,17.70
2022-10-26T19:14:40.469Z,17.70
2022-10-26T19:17:07.228Z,17.70
2022-10-26T19:19:34.141Z,17.70
2022-10-26T19:22:01.003Z,17.70
2022-10-26T19:24:27.776Z,17.60
2022-10-26T19:26:54.611Z,17.60
2022-10-26T19:29:21.567Z,17.50
2022-10-26T19:31:51.841Z,17.50
2022-10-26T19:34:18.908Z,17.50
2022-10-26T19:36:46.905Z,17.50
2022-10-26T19:39:17.467Z,17.50
2022-10-26T19:41:45.553Z,17.40
2022-10-26T19:44:14.739Z,17.50
2022-10-26T19:46:43.191Z,17.50
2022-10-26T19:49:09.883Z,17.40
2022-10-26T19:51:36.712Z,17.40
2022-10-26T19:54:05.973Z,17.30
2022-10-26T19:56:34.067Z,17.30
2022-10-26T19:59:01.555Z,17.30
2022-10-26T20:01:28.789Z,17.20
2022-10-26T20:03:55.729Z,17.20
2022-10-26T20:06:22.628Z,17.20
2022-10-26T20:08:50.381Z,17.20
2022-10-26T20:11:18.332Z,17.20
2022-10-26T20:13:46.442Z,17.20
2022-10-26T20:16:14.856Z,17.20
2022-10-26T20:18:44.384Z,17.10
2022-10-26T20:21:16.989Z,17.10
2022-10-26T20:23:44.587Z,17.10
2022-10-26T20:26:18.212Z,17.00
2022-10-26T20:28:48.058Z,17.00
2022-10-26T20:31:15.019Z,17.00
2022-10-26T20:33:41.753Z,16.90
2022-10-26T20:36:08.499Z,16.90
2022-10-26T20:38:35.778Z,17.00
2022-10-26T20:41:06.252Z,17.00
2022-10-26T20:43:39.398Z,16.90
2022-10-26T20:46:07.371Z,16.90
2022-10-26T20:48:34.617Z,16.90
2022-10-26T20:51:22.207Z,16.90
2022-10-26T20:54:02.327Z,16.80
2022-10-26T20:56:29.683Z,16.80
2022-10-26T20:58:58.309Z,16.80
2022-10-26T21:01:33.762Z,16.80
2022-10-26T21:04:10.025Z,16.80
2022-10-26T21:06:40.293Z,16.70
2022-10-26T21:09:08.677Z,16.70
2022-10-26T21:11:36.101Z,16.60
2022-10-26T21:14:05.021Z,16.60
2022-10-26T21:16:32.040Z,16.60
2022-10-26T21:19:00.257Z,16.60
2022-10-26T21:21:27.250Z,18.00
2022-10-26T21:23:53.987Z,16.60
2022-10-26T21:26:20.653Z,16.70
2022-10-26T21:28:47.451Z,16.70
2022-10-26T21:31:18.689Z,16.60
2022-10-26T21:33:46.810Z,16.60
2022-10-26T21:36:14.521Z,16.50
2022-10-26T21:38:43.420Z,16.60
2022-10-26T21:41:11.684Z,16.60
2022-10-26T21:43:40.936Z,16.60
2022-10-26T21:46:07.995Z,16.50
2022-10-26T21:48:35.319Z,16.50
2022-10-26T21:51:04.294Z,16.50
2022-10-26T21:53:31.164Z,16.40
2022-10-26T21:56:05.809Z,16.40
2022-10-26T21:58:32.609Z,16.30
2022-10-26T22:01:11.555Z,16.30
2022-10-26T22:03:39.348Z,16.30
2022-10-26T22:06:07.371Z,16.30
2022-10-26T22:08:34.661Z,16.30
2022-10-26T22:11:12.992Z,16.30
2022-10-26T22:13:41.788Z,16.30
2022-10-26T22:16:28.919Z,16.20
2022-10-26T22:18:57.795Z,16.30
2022-10-26T22:21:26.553Z,16.30
2022-10-26T22:23:53.323Z,16.30
2022-10-26T22:26:22.056Z,16.20
2022-10-26T22:28:51.828Z,16.30
2022-10-26T22:31:27.490Z,16.20
2022-10-26T22:33:56.543Z,16.20
2022-10-26T22:36:24.458Z,16.20
2022-10-26T22:38:52.361Z,16.20
2022-10-26T22:41:20.534Z,16.20
2022-10-26T22:43:47.671Z,16.20
2022-10-26T22:46:20.711Z,16.10
2022-10-26T22:48:48.201Z,16.10
2022-10-26T22:51:19.938Z,16.10
2022-10-26T22:53:47.108Z,16.10
2022-10-26T22:56:15.017Z,16.00
2022-10-26T22:58:41.804Z,16.00
2022-10-26T23:01:11.467Z,16.00
2022-10-26T23:03:38.435Z,16.00
2022-10-26T23:06:08.043Z,16.00
2022-10-26T23:08:34.825Z,16.00
2022-10-26T23:11:03.616Z,16.00
2022-10-26T23:13:30.705Z,16.00
2022-10-26T23:16:07.581Z,16.00
2022-10-26T23:18:35.116Z,15.90
2022-10-26T23:21:02.647Z,15.90
2022-10-26T23:23:29.669Z,15.90
2022-10-26T23:26:07.445Z,15.90
2022-10-26T23:28:35.200Z,15.90
2022-10-26T23:31:02.486Z,15.90
2022-10-26T23:33:29.624Z,15.80
2022-10-26T23:35:57.408Z,15.70
2022-10-26T23:38:25.169Z,15.80
2022-10-26T23:40:56.910Z,15.80
2022-10-26T23:43:24.168Z,15.80
2022-10-26T23:45:51.257Z,15.80
2022-10-26T23:48:19.293Z,15.80
2022-10-26T23:50:47.757Z,15.70
2022-10-26T23:53:16.031Z,15.70
2022-10-26T23:55:46.231Z,15.70
2022-10-26T23:58:13.556Z,15.80
